Loveville, Maryland
Current Conditions -  °F | °C
As of 9:50 PM on Wednesday 26 Nov 2014 (Local Time) from K2W6 Reporting Station
Overcast Overcast  
Wind Chill: 30°   Ceiling: 700
Heat Index: 36°   Visibility: 10mi
Dew Point: 34°   Wind: 7mph
Humidity: 93%   Direction: 270°W
Pressure: 30"   Gusts: NA
Location:  38.36°N, 76.69°W
Report Text: K2W6 270250Z AUTO 27006KT 10SM OVC007 02/01 A3000 RMK AO1
Loading
Personal Weather Stations






























Interactive Weather Map New forecast layout! Learn more

10-Day Weather Forecast

Advertisements
Track Severe Weather on mobile